sensor_id;sensor_type;location;lat;lon;timestamp;pressure;altitude;pressure_sealevel;temperature;humidity
12178;BME280;6152;48.728;9.256;2022-07-29T00:00:17;96938.69;;;18.24;100.00
12178;BME280;6152;48.728;9.256;2022-07-29T00:02:43;96934.63;;;18.29;100.00
12178;BME280;6152;48.728;9.256;2022-07-29T00:05:09;96942.78;;;18.36;100.00
12178;BME280;6152;48.728;9.256;2022-07-29T00:07:37;96942.66;;;18.37;100.00
12178;BME280;6152;48.728;9.256;2022-07-29T00:10:04;96935.41;;;18.39;100.00
12178;BME280;6152;48.728;9.256;2022-07-29T00:12:30;96932.19;;;18.45;100.00
12178;BME280;6152;48.728;9.256;2022-07-29T00:14:57;96923.72;;;18.51;100.00
12178;BME280;6152;48.728;9.256;2022-07-29T00:17:26;96924.41;;;18.53;100.00
12178;BME280;6152;48.728;9.256;2022-07-29T00:19:52;96925.09;;;18.55;100.00
12178;BME280;6152;48.728;9.256;2022-07-29T00:22:19;96922.03;;;18.60;100.00
12178;BME280;6152;48.728;9.256;2022-07-29T00:24:48;96917.59;;;18.60;100.00
12178;BME280;6152;48.728;9.256;2022-07-29T00:27:14;96908.31;;;18.56;100.00
12178;BME280;6152;48.728;9.256;2022-07-29T00:29:41;96915.53;;;18.54;100.00
12178;BME280;6152;48.728;9.256;2022-07-29T00:32:07;96926.50;;;18.50;100.00
12178;BME280;6152;48.728;9.256;2022-07-29T00:34:33;96918.72;;;18.48;100.00
12178;BME280;6152;48.728;9.256;2022-07-29T00:37:18;96922.63;;;18.44;100.00
12178;BME280;6152;48.728;9.256;2022-07-29T00:39:44;96916.28;;;18.37;100.00
12178;BME280;6152;48.728;9.256;2022-07-29T00:42:10;96915.22;;;18.30;100.00
12178;BME280;6152;48.728;9.256;2022-07-29T00:44:40;96922.16;;;18.22;100.00
12178;BME280;6152;48.728;9.256;2022-07-29T00:47:08;96918.31;;;18.16;100.00
12178;BME280;6152;48.728;9.256;2022-07-29T00:49:34;96916.94;;;18.12;100.00
12178;BME280;6152;48.728;9.256;2022-07-29T00:52:02;96910.84;;;18.11;100.00
12178;BME280;6152;48.728;9.256;2022-07-29T00:54:29;96915.56;;;18.08;100.00
12178;BME280;6152;48.728;9.256;2022-07-29T00:56:57;96907.00;;;18.06;100.00
12178;BME280;6152;48.728;9.256;2022-07-29T00:59:24;96899.38;;;18.03;100.00
12178;BME280;6152;48.728;9.256;2022-07-29T01:01:50;96902.28;;;18.00;100.00
12178;BME280;6152;48.728;9.256;2022-07-29T01:04:16;96905.19;;;17.97;100.00
12178;BME280;6152;48.728;9.256;2022-07-29T01:06:43;96893.16;;;17.94;100.00
12178;BME280;6152;48.728;9.256;2022-07-29T01:09:10;96901.47;;;17.90;100.00
12178;BME280;6152;48.728;9.256;2022-07-29T01:11:36;96891.41;;;17.85;100.00
12178;BME280;6152;48.728;9.256;2022-07-29T01:14:04;96887.09;;;17.84;100.00
12178;BME280;6152;48.728;9.256;2022-07-29T01:16:37;96880.16;;;17.83;100.00
12178;BME280;6152;48.728;9.256;2022-07-29T01:21:56;96887.50;;;17.80;100.00
12178;BME280;6152;48.728;9.256;2022-07-29T01:26:56;96878.22;;;17.76;100.00
12178;BME280;6152;48.728;9.256;2022-07-29T01:29:55;96881.41;;;17.79;100.00
12178;BME280;6152;48.728;9.256;2022-07-29T01:32:26;96884.88;;;17.80;100.00
12178;BME280;6152;48.728;9.256;2022-07-29T01:35:04;96881.16;;;17.82;100.00
12178;BME280;6152;48.728;9.256;2022-07-29T01:42:45;96890.72;;;17.74;100.00
12178;BME280;6152;48.728;9.256;2022-07-29T01:45:24;96882.94;;;17.72;100.00
12178;BME280;6152;48.728;9.256;2022-07-29T01:48:10;96877.31;;;17.67;100.00
12178;BME280;6152;48.728;9.256;2022-07-29T01:54:04;96884.94;;;17.60;100.00
12178;BME280;6152;48.728;9.256;2022-07-29T01:56:33;96883.28;;;17.59;100.00
12178;BME280;6152;48.728;9.256;2022-07-29T01:59:03;96884.50;;;17.55;100.00
12178;BME280;6152;48.728;9.256;2022-07-29T02:01:32;96882.13;;;17.52;100.00
12178;BME280;6152;48.728;9.256;2022-07-29T02:04:01;96884.09;;;17.50;100.00
12178;BME280;6152;48.728;9.256;2022-07-29T02:06:30;96875.78;;;17.45;100.00
12178;BME280;6152;48.728;9.256;2022-07-29T02:08:59;96873.16;;;17.45;100.00
12178;BME280;6152;48.728;9.256;2022-07-29T02:11:27;96865.53;;;17.42;100.00
12178;BME280;6152;48.728;9.256;2022-07-29T02:13:56;96865.53;;;17.42;100.00
12178;BME280;6152;48.728;9.256;2022-07-29T02:16:24;96865.81;;;17.39;100.00
12178;BME280;6152;48.728;9.256;2022-07-29T02:18:53;96868.75;;;17.36;100.00
12178;BME280;6152;48.728;9.256;2022-07-29T02:21:24;96869.03;;;17.33;100.00
12178;BME280;6152;48.728;9.256;2022-07-29T02:23:52;96860.44;;;17.31;100.00
12178;BME280;6152;48.728;9.256;2022-07-29T02:26:21;96865.13;;;17.28;100.00
12178;BME280;6152;48.728;9.256;2022-07-29T02:28:51;96859.63;;;17.21;100.00
12178;BME280;6152;48.728;9.256;2022-07-29T02:31:21;96855.59;;;17.17;100.00
12178;BME280;6152;48.728;9.256;2022-07-29T02:33:49;96859.22;;;17.16;100.00
12178;BME280;6152;48.728;9.256;2022-07-29T02:36:16;96859.22;;;17.16;100.00
12178;BME280;6152;48.728;9.256;2022-07-29T02:38:43;96854.38;;;17.11;100.00
12178;BME280;6152;48.728;9.256;2022-07-29T02:41:27;96854.53;;;17.10;100.00
12178;BME280;6152;48.728;9.256;2022-07-29T02:44:03;96853.97;;;17.06;100.00
12178;BME280;6152;48.728;9.256;2022-07-29T02:46:35;96866.28;;;17.06;100.00
12178;BME280;6152;48.728;9.256;2022-07-29T02:52:01;96855.34;;;17.01;100.00
12178;BME280;6152;48.728;9.256;2022-07-29T02:57:33;96861.72;;;16.98;100.00
12178;BME280;6152;48.728;9.256;2022-07-29T03:00:05;96858.13;;;16.99;100.00
12178;BME280;6152;48.728;9.256;2022-07-29T03:02:38;96856.44;;;16.98;100.00
12178;BME280;6152;48.728;9.256;2022-07-29T03:05:09;96861.56;;;17.00;100.00
12178;BME280;6152;48.728;9.256;2022-07-29T03:07:37;96863.09;;;17.02;100.00
12178;BME280;6152;48.728;9.256;2022-07-29T03:10:05;96860.31;;;17.04;100.00
12178;BME280;6152;48.728;9.256;2022-07-29T03:12:32;96869.19;;;17.03;100.00
12178;BME280;6152;48.728;9.256;2022-07-29T03:14:59;96861.97;;;17.05;100.00
12178;BME280;6152;48.728;9.256;2022-07-29T03:17:27;96867.13;;;17.06;100.00
12178;BME280;6152;48.728;9.256;2022-07-29T03:19:53;96867.25;;;17.05;100.00
12178;BME280;6152;48.728;9.256;2022-07-29T03:22:19;96872.38;;;17.06;100.00
12178;BME280;6152;48.728;9.256;2022-07-29T03:24:46;96872.50;;;17.05;100.00
12178;BME280;6152;48.728;9.256;2022-07-29T03:27:12;96872.50;;;17.05;100.00
12178;BME280;6152;48.728;9.256;2022-07-29T03:29:38;96865.56;;;17.04;100.00
12178;BME280;6152;48.728;9.256;2022-07-29T03:32:05;96868.19;;;17.04;100.00
12178;BME280;6152;48.728;9.256;2022-07-29T03:34:31;96853.97;;;17.06;100.00
12178;BME280;6152;48.728;9.256;2022-07-29T03:36:58;96864.63;;;17.05;100.00
12178;BME280;6152;48.728;9.256;2022-07-29T03:39:27;96868.91;;;17.06;100.00
12178;BME280;6152;48.728;9.256;2022-07-29T03:41:57;96867.25;;;17.05;100.00
12178;BME280;6152;48.728;9.256;2022-07-29T03:44:26;96867.25;;;17.05;100.00
12178;BME280;6152;48.728;9.256;2022-07-29T03:46:55;96857.41;;;17.07;100.00
12178;BME280;6152;48.728;9.256;2022-07-29T03:49:25;96862.41;;;17.10;100.00
12178;BME280;6152;48.728;9.256;2022-07-29T03:51:52;96866.97;;;17.08;100.00
12178;BME280;6152;48.728;9.256;2022-07-29T03:54:18;96877.47;;;17.08;100.00
12178;BME280;6152;48.728;9.256;2022-07-29T03:56:46;96867.91;;;17.07;100.00
12178;BME280;6152;48.728;9.256;2022-07-29T03:59:15;96873.59;;;17.12;100.00
12178;BME280;6152;48.728;9.256;2022-07-29T04:01:41;96866.69;;;17.11;100.00
12178;BME280;6152;48.728;9.256;2022-07-29T04:04:08;96877.19;;;17.11;100.00
12178;BME280;6152;48.728;9.256;2022-07-29T04:06:42;96871.09;;;17.10;100.00
12178;BME280;6152;48.728;9.256;2022-07-29T04:09:09;96875.56;;;17.10;100.00
12178;BME280;6152;48.728;9.256;2022-07-29T04:11:38;96877.19;;;17.11;100.00
12178;BME280;6152;48.728;9.256;2022-07-29T04:14:04;96874.56;;;17.11;100.00
12178;BME280;6152;48.728;9.256;2022-07-29T04:16:31;96881.63;;;17.10;100.00
12178;BME280;6152;48.728;9.256;2022-07-29T04:18:57;96882.47;;;17.11;100.00
12178;BME280;6152;48.728;9.256;2022-07-29T04:21:23;96881.34;;;17.13;100.00
12178;BME280;6152;48.728;9.256;2022-07-29T04:23:50;96885.78;;;17.13;100.00
12178;BME280;6152;48.728;9.256;2022-07-29T04:26:20;96893.53;;;17.14;100.00
12178;BME280;6152;48.728;9.256;2022-07-29T04:28:46;96893.53;;;17.14;100.00
12178;BME280;6152;48.728;9.256;2022-07-29T04:31:13;96890.78;;;17.16;100.00
12178;BME280;6152;48.728;9.256;2022-07-29T04:33:39;96887.88;;;17.19;100.00
12178;BME280;6152;48.728;9.256;2022-07-29T04:36:06;96889.78;;;17.17;100.00
12178;BME280;6152;48.728;9.256;2022-07-29T04:38:32;96887.16;;;17.17;100.00
12178;BME280;6152;48.728;9.256;2022-07-29T04:40:58;96888.53;;;17.21;100.00
12178;BME280;6152;48.728;9.256;2022-07-29T04:43:24;96887.72;;;17.21;100.00
12178;BME280;6152;48.728;9.256;2022-07-29T04:45:50;96890.63;;;17.17;100.00
12178;BME280;6152;48.728;9.256;2022-07-29T04:48:16;96887.16;;;17.17;100.00
12178;BME280;6152;48.728;9.256;2022-07-29T04:50:42;96897.13;;;17.23;100.00
12178;BME280;6152;48.728;9.256;2022-07-29T04:53:10;96893.28;;;17.27;100.00
12178;BME280;6152;48.728;9.256;2022-07-29T04:55:36;96888.53;;;17.31;100.00
12178;BME280;6152;48.728;9.256;2022-07-29T04:58:02;96901.00;;;17.38;100.00
12178;BME280;6152;48.728;9.256;2022-07-29T05:00:28;96901.69;;;17.40;100.00
12178;BME280;6152;48.728;9.256;2022-07-29T05:02:55;96893.91;;;17.48;100.00
12178;BME280;6152;48.728;9.256;2022-07-29T05:05:21;96894.91;;;17.57;100.00
12178;BME280;6152;48.728;9.256;2022-07-29T05:07:47;96893.22;;;17.65;100.00
12178;BME280;6152;48.728;9.256;2022-07-29T05:10:13;96900.41;;;17.73;100.00
12178;BME280;6152;48.728;9.256;2022-07-29T05:12:39;96900.94;;;17.86;100.00
12178;BME280;6152;48.728;9.256;2022-07-29T05:15:05;96905.34;;;17.95;100.00
12178;BME280;6152;48.728;9.256;2022-07-29T05:17:32;96912.25;;;18.06;100.00
12178;BME280;6152;48.728;9.256;2022-07-29T05:19:58;96911.91;;;18.18;100.00
12178;BME280;6152;48.728;9.256;2022-07-29T05:22:24;96910.06;;;18.29;100.00
12178;BME280;6152;48.728;9.256;2022-07-29T05:24:50;96909.34;;;18.36;100.00
12178;BME280;6152;48.728;9.256;2022-07-29T05:27:16;96909.16;;;18.47;100.00
12178;BME280;6152;48.728;9.256;2022-07-29T05:29:42;96908.59;;;18.53;100.00
12178;BME280;6152;48.728;9.256;2022-07-29T05:32:08;96905.91;;;18.63;100.00
12178;BME280;6152;48.728;9.256;2022-07-29T05:34:34;96908.66;;;18.71;100.00
12178;BME280;6152;48.728;9.256;2022-07-29T05:37:01;96909.56;;;18.80;100.00
12178;BME280;6152;48.728;9.256;2022-07-29T05:39:27;96911.31;;;18.89;100.00
12178;BME280;6152;48.728;9.256;2022-07-29T05:41:53;96916.59;;;18.89;100.00
12178;BME280;6152;48.728;9.256;2022-07-29T05:44:19;96929.59;;;18.90;100.00
12178;BME280;6152;48.728;9.256;2022-07-29T05:46:45;96917.13;;;18.92;100.00
12178;BME280;6152;48.728;9.256;2022-07-29T05:49:15;96925.69;;;18.94;100.00
12178;BME280;6152;48.728;9.256;2022-07-29T05:51:41;96919.00;;;19.00;100.00
12178;BME280;6152;48.728;9.256;2022-07-29T05:54:07;96920.88;;;19.07;100.00
12178;BME280;6152;48.728;9.256;2022-07-29T05:56:35;96920.81;;;19.17;100.00
12178;BME280;6152;48.728;9.256;2022-07-29T05:59:01;96921.88;;;19.24;100.00
12178;BME280;6152;48.728;9.256;2022-07-29T06:01:27;96922.59;;;19.34;100.00
12178;BME280;6152;48.728;9.256;2022-07-29T06:03:53;96925.63;;;19.39;100.00
12178;BME280;6152;48.728;9.256;2022-07-29T06:06:19;96933.66;;;19.47;100.00
12178;BME280;6152;48.728;9.256;2022-07-29T06:08:45;96927.38;;;19.48;100.00
12178;BME280;6152;48.728;9.256;2022-07-29T06:11:12;96929.44;;;19.54;100.00
12178;BME280;6152;48.728;9.256;2022-07-29T06:13:38;96926.94;;;19.53;100.00
12178;BME280;6152;48.728;9.256;2022-07-29T06:16:04;96935.38;;;19.56;100.00
12178;BME280;6152;48.728;9.256;2022-07-29T06:18:30;96933.41;;;19.58;100.00
12178;BME280;6152;48.728;9.256;2022-07-29T06:20:56;96932.97;;;19.63;100.00
12178;BME280;6152;48.728;9.256;2022-07-29T06:23:22;96932.19;;;19.71;100.00
12178;BME280;6152;48.728;9.256;2022-07-29T06:25:48;96942.84;;;19.79;100.00
12178;BME280;6152;48.728;9.256;2022-07-29T06:28:15;96940.84;;;19.81;100.00
12178;BME280;6152;48.728;9.256;2022-07-29T06:30:41;96942.44;;;19.74;100.00
12178;BME280;6152;48.728;9.256;2022-07-29T06:33:07;96942.84;;;19.79;100.00
12178;BME280;6152;48.728;9.256;2022-07-29T06:35:34;96945.81;;;19.84;100.00
12178;BME280;6152;48.728;9.256;2022-07-29T06:38:02;96940.53;;;19.84;100.00
12178;BME280;6152;48.728;9.256;2022-07-29T06:40:28;96945.47;;;19.79;100.00
12178;BME280;6152;48.728;9.256;2022-07-29T06:43:13;96947.19;;;19.88;100.00
12178;BME280;6152;48.728;9.256;2022-07-29T06:45:39;96942.63;;;19.98;100.00
12178;BME280;6152;48.728;9.256;2022-07-29T06:48:07;96952.97;;;20.17;100.00
12178;BME280;6152;48.728;9.256;2022-07-29T06:50:33;96949.97;;;20.38;100.00
12178;BME280;6152;48.728;9.256;2022-07-29T06:52:59;96953.28;;;20.74;100.00
12178;BME280;6152;48.728;9.256;2022-07-29T06:55:25;96954.19;;;20.90;100.00
12178;BME280;6152;48.728;9.256;2022-07-29T06:57:52;96961.69;;;21.03;100.00
12178;BME280;6152;48.728;9.256;2022-07-29T07:00:18;96954.63;;;21.20;100.00
12178;BME280;6152;48.728;9.256;2022-07-29T07:02:44;96958.47;;;21.33;100.00
12178;BME280;6152;48.728;9.256;2022-07-29T07:05:10;96966.09;;;21.44;100.00
12178;BME280;6152;48.728;9.256;2022-07-29T07:07:36;96963.44;;;21.68;100.00
12178;BME280;6152;48.728;9.256;2022-07-29T07:10:03;96962.13;;;21.81;100.00
12178;BME280;6152;48.728;9.256;2022-07-29T07:12:29;96964.78;;;21.81;100.00
12178;BME280;6152;48.728;9.256;2022-07-29T07:14:55;96964.78;;;21.89;100.00
12178;BME280;6152;48.728;9.256;2022-07-29T07:17:21;96966.44;;;22.06;100.00
12178;BME280;6152;48.728;9.256;2022-07-29T07:19:47;96968.03;;;22.31;100.00
12178;BME280;6152;48.728;9.256;2022-07-29T07:22:14;96974.47;;;22.45;100.00
12178;BME280;6152;48.728;9.256;2022-07-29T07:24:40;96971.16;;;22.51;100.00
12178;BME280;6152;48.728;9.256;2022-07-29T07:27:06;96970.34;;;22.50;100.00
12178;BME280;6152;48.728;9.256;2022-07-29T07:29:32;96977.44;;;22.58;100.00
12178;BME280;6152;48.728;9.256;2022-07-29T07:31:58;96982.53;;;22.76;100.00
12178;BME280;6152;48.728;9.256;2022-07-29T07:34:24;96984.44;;;22.98;100.00
12178;BME280;6152;48.728;9.256;2022-07-29T07:36:50;96977.00;;;23.24;100.00
12178;BME280;6152;48.728;9.256;2022-07-29T07:39:17;96977.44;;;23.36;100.00
12178;BME280;6152;48.728;9.256;2022-07-29T07:41:43;96982.97;;;23.26;99.54
12178;BME280;6152;48.728;9.256;2022-07-29T07:44:09;96976.81;;;23.26;100.00
12178;BME280;6152;48.728;9.256;2022-07-29T07:46:35;96981.91;;;23.35;100.00
12178;BME280;6152;48.728;9.256;2022-07-29T07:49:01;96979.13;;;23.59;100.00
12178;BME280;6152;48.728;9.256;2022-07-29T07:51:27;96983.31;;;23.77;93.87
12178;BME280;6152;48.728;9.256;2022-07-29T07:53:53;96977.59;;;23.65;90.38
12178;BME280;6152;48.728;9.256;2022-07-29T07:56:20;96968.63;;;24.03;87.38
12178;BME280;6152;48.728;9.256;2022-07-29T07:58:46;96979.63;;;24.23;85.97
12178;BME280;6152;48.728;9.256;2022-07-29T08:01:12;96975.31;;;24.51;84.67
12178;BME280;6152;48.728;9.256;2022-07-29T08:03:38;96980.44;;;24.38;82.45
12178;BME280;6152;48.728;9.256;2022-07-29T08:06:04;96987.81;;;24.51;84.56
12178;BME280;6152;48.728;9.256;2022-07-29T08:08:31;96985.81;;;24.82;84.44
12178;BME280;6152;48.728;9.256;2022-07-29T08:10:57;96982.91;;;25.28;82.28
12178;BME280;6152;48.728;9.256;2022-07-29T08:13:26;96977.41;;;25.65;77.51
12178;BME280;6152;48.728;9.256;2022-07-29T08:15:56;96978.81;;;26.10;74.05
12178;BME280;6152;48.728;9.256;2022-07-29T08:18:29;96973.25;;;26.60;68.27
12178;BME280;6152;48.728;9.256;2022-07-29T08:20:56;96974.63;;;27.32;66.54
12178;BME280;6152;48.728;9.256;2022-07-29T08:23:22;96969.19;;;27.59;62.73
12178;BME280;6152;48.728;9.256;2022-07-29T08:25:49;96976.56;;;27.44;61.94
12178;BME280;6152;48.728;9.256;2022-07-29T08:28:16;96971.03;;;27.05;63.82
12178;BME280;6152;48.728;9.256;2022-07-29T08:30:42;96970.50;;;28.03;61.05
12178;BME280;6152;48.728;9.256;2022-07-29T08:33:08;96964.88;;;28.64;56.09
12178;BME280;6152;48.728;9.256;2022-07-29T08:35:34;96966.97;;;29.32;51.26
12178;BME280;6152;48.728;9.256;2022-07-29T08:38:00;96963.97;;;29.53;50.53
12178;BME280;6152;48.728;9.256;2022-07-29T08:40:26;96956.16;;;30.58;50.08
12178;BME280;6152;48.728;9.256;2022-07-29T08:42:53;96957.19;;;30.93;46.66
12178;BME280;6152;48.728;9.256;2022-07-29T08:45:19;96954.22;;;31.37;46.55
12178;BME280;6152;48.728;9.256;2022-07-29T08:47:46;96949.91;;;32.54;44.47
12178;BME280;6152;48.728;9.256;2022-07-29T08:50:12;96946.69;;;33.15;41.84
12178;BME280;6152;48.728;9.256;2022-07-29T08:52:40;96943.41;;;33.98;39.44
12178;BME280;6152;48.728;9.256;2022-07-29T08:55:08;96938.50;;;33.10;39.78
12178;BME280;6152;48.728;9.256;2022-07-29T08:57:35;96939.41;;;34.50;38.50
12178;BME280;6152;48.728;9.256;2022-07-29T09:00:04;96939.97;;;35.34;35.55
12178;BME280;6152;48.728;9.256;2022-07-29T09:02:35;96941.34;;;36.12;34.10
12178;BME280;6152;48.728;9.256;2022-07-29T09:05:05;96947.59;;;36.50;33.58
12178;BME280;6152;48.728;9.256;2022-07-29T09:07:31;96946.38;;;37.19;32.21
12178;BME280;6152;48.728;9.256;2022-07-29T09:09:58;96953.44;;;37.20;32.03
12178;BME280;6152;48.728;9.256;2022-07-29T09:12:25;96949.00;;;37.61;31.72
12178;BME280;6152;48.728;9.256;2022-07-29T09:14:52;96953.13;;;38.85;29.42
12178;BME280;6152;48.728;9.256;2022-07-29T09:17:18;96952.22;;;39.69;29.04
12178;BME280;6152;48.728;9.256;2022-07-29T09:20:12;96943.34;;;40.60;28.04
12178;BME280;6152;48.728;9.256;2022-07-29T09:22:38;96943.25;;;40.99;27.75
12178;BME280;6152;48.728;9.256;2022-07-29T09:25:05;96934.50;;;39.07;29.47
12178;BME280;6152;48.728;9.256;2022-07-29T09:27:31;96937.84;;;38.89;28.70
12178;BME280;6152;48.728;9.256;2022-07-29T09:30:07;96939.94;;;39.07;28.93
12178;BME280;6152;48.728;9.256;2022-07-29T09:32:56;96936.03;;;39.38;29.08
12178;BME280;6152;48.728;9.256;2022-07-29T09:35:24;96940.66;;;39.38;28.05
12178;BME280;6152;48.728;9.256;2022-07-29T09:37:51;96924.78;;;37.60;30.67
12178;BME280;6152;48.728;9.256;2022-07-29T09:42:48;96935.47;;;38.02;30.92
12178;BME280;6152;48.728;9.256;2022-07-29T09:47:52;96926.03;;;39.19;30.17
12178;BME280;6152;48.728;9.256;2022-07-29T09:50:20;96928.59;;;39.98;28.44
12178;BME280;6152;48.728;9.256;2022-07-29T09:52:53;96914.19;;;39.93;28.21
12178;BME280;6152;48.728;9.256;2022-07-29T09:55:19;96921.25;;;40.85;27.51
12178;BME280;6152;48.728;9.256;2022-07-29T09:57:46;96914.72;;;41.28;26.54
12178;BME280;6152;48.728;9.256;2022-07-29T10:00:18;96920.03;;;40.10;27.70
12178;BME280;6152;48.728;9.256;2022-07-29T10:02:46;96924.00;;;38.70;29.22
12178;BME280;6152;48.728;9.256;2022-07-29T10:05:20;96914.53;;;38.22;29.57
12178;BME280;6152;48.728;9.256;2022-07-29T10:07:52;96911.69;;;37.47;30.66
12178;BME280;6152;48.728;9.256;2022-07-29T10:10:22;96912.78;;;37.45;31.60
12178;BME280;6152;48.728;9.256;2022-07-29T10:13:00;96914.53;;;38.02;30.44
12178;BME280;6152;48.728;9.256;2022-07-29T10:15:28;96915.59;;;38.52;29.88
12178;BME280;6152;48.728;9.256;2022-07-29T10:17:56;96906.38;;;38.42;29.72
12178;BME280;6152;48.728;9.256;2022-07-29T10:20:23;96905.81;;;38.35;29.99
12178;BME280;6152;48.728;9.256;2022-07-29T10:22:51;96918.25;;;38.87;30.04
12178;BME280;6152;48.728;9.256;2022-07-29T10:25:19;96905.56;;;38.22;28.92
12178;BME280;6152;48.728;9.256;2022-07-29T10:27:50;96897.13;;;38.33;29.31
12178;BME280;6152;48.728;9.256;2022-07-29T10:30:21;96891.41;;;38.00;29.49
12178;BME280;6152;48.728;9.256;2022-07-29T10:33:12;96900.34;;;37.60;29.84
12178;BME280;6152;48.728;9.256;2022-07-29T10:35:44;96888.22;;;37.05;31.13
12178;BME280;6152;48.728;9.256;2022-07-29T10:43:48;96890.56;;;35.44;33.60
12178;BME280;6152;48.728;9.256;2022-07-29T10:46:15;96885.09;;;34.35;34.65
12178;BME280;6152;48.728;9.256;2022-07-29T10:49:06;96873.22;;;34.03;35.61
12178;BME280;6152;48.728;9.256;2022-07-29T11:02:41;96893.75;;;31.40;40.21
12178;BME280;6152;48.728;9.256;2022-07-29T11:05:19;96887.91;;;30.95;41.20
12178;BME280;6152;48.728;9.256;2022-07-29T11:10:43;96900.03;;;29.75;44.31
12178;BME280;6152;48.728;9.256;2022-07-29T11:13:09;96901.06;;;28.34;44.25
12178;BME280;6152;48.728;9.256;2022-07-29T11:15:56;96922.47;;;26.82;46.39
12178;BME280;6152;48.728;9.256;2022-07-29T11:18:23;96918.88;;;26.06;48.73
12178;BME280;6152;48.728;9.256;2022-07-29T11:20:50;96939.50;;;25.12;60.98
12178;BME280;6152;48.728;9.256;2022-07-29T11:23:33;96954.84;;;24.00;78.27
12178;BME280;6152;48.728;9.256;2022-07-29T11:26:22;97125.00;;;21.52;88.35
12178;BME280;6152;48.728;9.256;2022-07-29T11:28:51;97023.72;;;18.90;98.32
12178;BME280;6152;48.728;9.256;2022-07-29T11:37:15;97007.75;;;16.21;100.00
12178;BME280;6152;48.728;9.256;2022-07-29T11:40:07;97005.25;;;16.10;100.00
12178;BME280;6152;48.728;9.256;2022-07-29T11:45:14;97001.63;;;16.11;100.00
12178;BME280;6152;48.728;9.256;2022-07-29T11:52:57;96998.75;;;16.14;100.00
12178;BME280;6152;48.728;9.256;2022-07-29T11:55:24;97006.25;;;16.18;100.00
12178;BME280;6152;48.728;9.256;2022-07-29T11:57:51;97011.72;;;16.36;100.00
12178;BME280;6152;48.728;9.256;2022-07-29T12:00:38;97010.41;;;16.51;100.00
12178;BME280;6152;48.728;9.256;2022-07-29T12:03:10;97010.06;;;16.65;100.00
12178;BME280;6152;48.728;9.256;2022-07-29T12:05:42;97002.47;;;16.62;100.00
12178;BME280;6152;48.728;9.256;2022-07-29T12:08:14;96995.97;;;16.66;100.00
12178;BME280;6152;48.728;9.256;2022-07-29T12:10:41;96987.56;;;16.73;100.00
12178;BME280;6152;48.728;9.256;2022-07-29T12:13:08;96983.94;;;16.64;100.00
12178;BME280;6152;48.728;9.256;2022-07-29T12:15:34;96987.91;;;16.58;100.00
12178;BME280;6152;48.728;9.256;2022-07-29T12:18:10;96981.88;;;16.67;100.00
12178;BME280;6152;48.728;9.256;2022-07-29T12:20:37;96972.91;;;16.80;100.00
12178;BME280;6152;48.728;9.256;2022-07-29T12:23:07;96982.28;;;16.73;100.00
12178;BME280;6152;48.728;9.256;2022-07-29T12:25:35;96981.25;;;16.85;100.00
12178;BME280;6152;48.728;9.256;2022-07-29T12:28:08;96990.53;;;16.89;100.00
12178;BME280;6152;48.728;9.256;2022-07-29T12:30:46;96992.34;;;16.98;100.00
12178;BME280;6152;48.728;9.256;2022-07-29T12:33:25;96986.41;;;17.05;100.00
12178;BME280;6152;48.728;9.256;2022-07-29T12:36:03;96990.00;;;17.14;100.00
12178;BME280;6152;48.728;9.256;2022-07-29T12:38:29;96986.41;;;17.15;100.00
12178;BME280;6152;48.728;9.256;2022-07-29T12:40:56;96983.78;;;17.25;100.00
12178;BME280;6152;48.728;9.256;2022-07-29T12:43:23;96978.28;;;17.37;100.00
12178;BME280;6152;48.728;9.256;2022-07-29T12:45:55;96984.78;;;17.52;100.00
12178;BME280;6152;48.728;9.256;2022-07-29T12:48:34;96978.00;;;17.59;100.00
12178;BME280;6152;48.728;9.256;2022-07-29T12:51:02;96980.78;;;17.67;100.00
12178;BME280;6152;48.728;9.256;2022-07-29T12:53:29;96967.88;;;17.84;100.00
12178;BME280;6152;48.728;9.256;2022-07-29T12:55:57;96970.50;;;18.03;100.00
12178;BME280;6152;48.728;9.256;2022-07-29T13:01:08;96978.94;;;18.43;100.00
12178;BME280;6152;48.728;9.256;2022-07-29T13:03:56;96989.97;;;18.66;100.00
12178;BME280;6152;48.728;9.256;2022-07-29T13:11:37;96985.88;;;18.81;100.00
12178;BME280;6152;48.728;9.256;2022-07-29T13:14:05;96982.66;;;18.87;100.00
12178;BME280;6152;48.728;9.256;2022-07-29T13:16:31;96990.81;;;18.94;100.00
12178;BME280;6152;48.728;9.256;2022-07-29T13:19:05;97000.50;;;19.03;100.00
12178;BME280;6152;48.728;9.256;2022-07-29T13:21:32;97012.00;;;19.02;100.00
12178;BME280;6152;48.728;9.256;2022-07-29T13:23:58;97019.22;;;19.00;100.00
12178;BME280;6152;48.728;9.256;2022-07-29T13:26:24;97015.25;;;18.96;100.00
12178;BME280;6152;48.728;9.256;2022-07-29T13:28:50;97022.69;;;19.00;100.00
12178;BME280;6152;48.728;9.256;2022-07-29T13:31:17;97030.38;;;18.94;100.00
12178;BME280;6152;48.728;9.256;2022-07-29T13:33:43;97023.72;;;18.90;100.00
12178;BME280;6152;48.728;9.256;2022-07-29T13:36:09;97004.28;;;18.91;100.00
12178;BME280;6152;48.728;9.256;2022-07-29T13:38:35;97007.34;;;18.96;100.00
12178;BME280;6152;48.728;9.256;2022-07-29T13:41:01;97010.88;;;19.04;100.00
12178;BME280;6152;48.728;9.256;2022-07-29T13:43:27;97017.47;;;19.18;100.00
12178;BME280;6152;48.728;9.256;2022-07-29T13:45:53;97015.97;;;19.33;100.00
12178;BME280;6152;48.728;9.256;2022-07-29T13:48:19;97014.81;;;19.45;100.00
12178;BME280;6152;48.728;9.256;2022-07-29T13:50:46;97004.03;;;19.56;100.00
12178;BME280;6152;48.728;9.256;2022-07-29T13:53:13;96998.00;;;19.64;100.00
12178;BME280;6152;48.728;9.256;2022-07-29T13:55:40;96994.28;;;19.75;100.00
12178;BME280;6152;48.728;9.256;2022-07-29T13:58:06;96979.81;;;19.79;100.00
12178;BME280;6152;48.728;9.256;2022-07-29T14:00:32;96965.66;;;19.88;100.00
12178;BME280;6152;48.728;9.256;2022-07-29T14:02:58;96969.66;;;20.17;100.00
12178;BME280;6152;48.728;9.256;2022-07-29T14:05:25;96963.44;;;20.52;100.00
12178;BME280;6152;48.728;9.256;2022-07-29T14:07:51;96970.34;;;20.79;100.00
12178;BME280;6152;48.728;9.256;2022-07-29T14:10:17;96960.16;;;20.92;100.00
12178;BME280;6152;48.728;9.256;2022-07-29T14:12:43;96953.75;;;21.03;100.00
12178;BME280;6152;48.728;9.256;2022-07-29T14:15:09;96950.31;;;21.19;100.00